sensor_id;sensor_type;location;lat;lon;timestamp;pressure;altitude;pressure_sealevel;temperature;humidity
7584;BME280;3833;41.764;26.204;2022-07-23T00:00:22;100822.72;;;24.04;100.00
7584;BME280;3833;41.764;26.204;2022-07-23T00:02:50;100822.28;;;23.99;100.00
7584;BME280;3833;41.764;26.204;2022-07-23T00:05:18;100813.22;;;23.81;100.00
7584;BME280;3833;41.764;26.204;2022-07-23T00:07:45;100817.28;;;24.15;100.00
7584;BME280;3833;41.764;26.204;2022-07-23T00:10:11;100817.13;;;24.56;100.00
7584;BME280;3833;41.764;26.204;2022-07-23T00:12:39;100820.53;;;24.86;100.00
7584;BME280;3833;41.764;26.204;2022-07-23T00:15:07;100821.91;;;25.00;100.00
7584;BME280;3833;41.764;26.204;2022-07-23T00:17:35;100827.41;;;25.27;100.00
7584;BME280;3833;41.764;26.204;2022-07-23T00:20:03;100827.25;;;25.47;96.82
7584;BME280;3833;41.764;26.204;2022-07-23T00:22:31;100821.16;;;25.54;97.01
7584;BME280;3833;41.764;26.204;2022-07-23T00:24:58;100837.88;;;25.66;94.76
7584;BME280;3833;41.764;26.204;2022-07-23T00:27:25;100841.72;;;25.54;90.38
7584;BME280;3833;41.764;26.204;2022-07-23T00:29:55;100834.41;;;25.46;91.94
7584;BME280;3833;41.764;26.204;2022-07-23T00:32:21;100832.63;;;25.37;94.60
7584;BME280;3833;41.764;26.204;2022-07-23T00:34:48;100830.34;;;25.33;94.92
7584;BME280;3833;41.764;26.204;2022-07-23T00:37:15;100831.34;;;25.23;94.13
7584;BME280;3833;41.764;26.204;2022-07-23T00:39:43;100840.06;;;25.06;98.67
7584;BME280;3833;41.764;26.204;2022-07-23T00:42:10;100830.78;;;24.91;98.79
7584;BME280;3833;41.764;26.204;2022-07-23T00:44:37;100836.13;;;24.81;99.51
7584;BME280;3833;41.764;26.204;2022-07-23T00:47:04;100841.84;;;24.58;100.00
7584;BME280;3833;41.764;26.204;2022-07-23T00:49:31;100839.63;;;24.63;100.00
7584;BME280;3833;41.764;26.204;2022-07-23T00:52:01;100831.47;;;24.55;100.00
7584;BME280;3833;41.764;26.204;2022-07-23T00:54:28;100833.03;;;24.76;100.00
7584;BME280;3833;41.764;26.204;2022-07-23T00:56:56;100833.72;;;24.69;100.00
7584;BME280;3833;41.764;26.204;2022-07-23T00:59:23;100833.72;;;24.88;100.00
7584;BME280;3833;41.764;26.204;2022-07-23T01:01:50;100829.13;;;23.21;100.00
7584;BME280;3833;41.764;26.204;2022-07-23T01:04:17;100833.31;;;22.30;100.00
7584;BME280;3833;41.764;26.204;2022-07-23T01:06:44;100830.31;;;21.69;100.00
7584;BME280;3833;41.764;26.204;2022-07-23T01:09:12;100828.72;;;21.99;100.00
7584;BME280;3833;41.764;26.204;2022-07-23T01:11:39;100828.75;;;22.63;100.00
7584;BME280;3833;41.764;26.204;2022-07-23T01:14:13;100829.59;;;22.95;100.00
7584;BME280;3833;41.764;26.204;2022-07-23T01:16:42;100823.66;;;23.43;100.00
7584;BME280;3833;41.764;26.204;2022-07-23T01:19:10;100770.38;;;23.53;100.00
7584;BME280;3833;41.764;26.204;2022-07-23T01:21:39;100813.47;;;24.08;100.00
7584;BME280;3833;41.764;26.204;2022-07-23T01:24:08;100828.44;;;24.39;100.00
7584;BME280;3833;41.764;26.204;2022-07-23T01:26:36;100825.50;;;24.42;100.00
7584;BME280;3833;41.764;26.204;2022-07-23T01:29:03;100821.78;;;24.24;100.00
7584;BME280;3833;41.764;26.204;2022-07-23T01:31:30;100826.81;;;24.08;100.00
7584;BME280;3833;41.764;26.204;2022-07-23T01:33:58;100826.19;;;23.95;100.00
7584;BME280;3833;41.764;26.204;2022-07-23T01:36:25;100832.16;;;24.08;100.00
7584;BME280;3833;41.764;26.204;2022-07-23T01:38:51;100828.06;;;24.04;100.00
7584;BME280;3833;41.764;26.204;2022-07-23T01:41:20;100836.13;;;23.84;100.00
7584;BME280;3833;41.764;26.204;2022-07-23T01:43:47;100827.56;;;23.90;100.00
7584;BME280;3833;41.764;26.204;2022-07-23T01:46:14;100828.47;;;24.00;100.00
7584;BME280;3833;41.764;26.204;2022-07-23T01:48:40;100833.22;;;23.96;100.00
7584;BME280;3833;41.764;26.204;2022-07-23T01:51:07;100826.84;;;23.58;100.00
7584;BME280;3833;41.764;26.204;2022-07-23T01:53:34;100827.19;;;22.61;100.00
7584;BME280;3833;41.764;26.204;2022-07-23T01:56:01;100832.81;;;22.14;100.00
7584;BME280;3833;41.764;26.204;2022-07-23T01:58:30;100834.50;;;21.49;100.00
7584;BME280;3833;41.764;26.204;2022-07-23T02:00:57;100836.31;;;21.03;100.00
7584;BME280;3833;41.764;26.204;2022-07-23T02:03:24;100835.78;;;20.88;100.00
7584;BME280;3833;41.764;26.204;2022-07-23T02:05:51;100836.25;;;20.69;100.00
7584;BME280;3833;41.764;26.204;2022-07-23T02:08:18;100826.31;;;20.60;100.00
7584;BME280;3833;41.764;26.204;2022-07-23T02:10:45;100832.84;;;20.80;100.00
7584;BME280;3833;41.764;26.204;2022-07-23T02:13:12;100837.19;;;21.60;100.00
7584;BME280;3833;41.764;26.204;2022-07-23T02:15:40;100831.66;;;21.85;100.00
7584;BME280;3833;41.764;26.204;2022-07-23T02:18:07;100833.78;;;22.24;100.00
7584;BME280;3833;41.764;26.204;2022-07-23T02:20:34;100835.91;;;22.63;100.00
7584;BME280;3833;41.764;26.204;2022-07-23T02:23:04;100837.66;;;23.36;100.00
7584;BME280;3833;41.764;26.204;2022-07-23T02:25:31;100832.84;;;23.50;100.00
7584;BME280;3833;41.764;26.204;2022-07-23T02:27:57;100834.03;;;23.87;100.00
7584;BME280;3833;41.764;26.204;2022-07-23T02:30:24;100832.69;;;24.02;100.00
7584;BME280;3833;41.764;26.204;2022-07-23T02:32:53;100836.69;;;24.26;100.00
7584;BME280;3833;41.764;26.204;2022-07-23T02:35:19;100837.75;;;24.44;100.00
7584;BME280;3833;41.764;26.204;2022-07-23T02:37:46;100835.66;;;23.28;100.00
7584;BME280;3833;41.764;26.204;2022-07-23T02:40:13;100848.16;;;22.54;100.00
7584;BME280;3833;41.764;26.204;2022-07-23T02:42:40;100852.66;;;22.43;100.00
7584;BME280;3833;41.764;26.204;2022-07-23T02:45:07;100847.09;;;22.46;100.00
7584;BME280;3833;41.764;26.204;2022-07-23T02:47:34;100844.13;;;23.02;100.00
7584;BME280;3833;41.764;26.204;2022-07-23T02:50:03;100850.31;;;23.43;100.00
7584;BME280;3833;41.764;26.204;2022-07-23T02:52:30;100857.47;;;22.60;100.00
7584;BME280;3833;41.764;26.204;2022-07-23T02:55:00;100846.50;;;22.20;100.00
7584;BME280;3833;41.764;26.204;2022-07-23T02:57:27;100853.66;;;23.05;100.00
7584;BME280;3833;41.764;26.204;2022-07-23T02:59:54;100854.03;;;23.52;100.00
7584;BME280;3833;41.764;26.204;2022-07-23T03:02:21;100857.28;;;23.35;100.00
7584;BME280;3833;41.764;26.204;2022-07-23T03:04:48;100845.38;;;23.59;100.00
7584;BME280;3833;41.764;26.204;2022-07-23T03:07:17;100855.69;;;23.94;100.00
7584;BME280;3833;41.764;26.204;2022-07-23T03:09:44;100858.59;;;23.61;100.00
7584;BME280;3833;41.764;26.204;2022-07-23T03:12:11;100864.16;;;23.37;100.00
7584;BME280;3833;41.764;26.204;2022-07-23T03:14:38;100861.25;;;22.46;100.00
7584;BME280;3833;41.764;26.204;2022-07-23T03:17:04;100865.75;;;21.80;100.00
7584;BME280;3833;41.764;26.204;2022-07-23T03:19:31;100861.41;;;21.90;100.00
7584;BME280;3833;41.764;26.204;2022-07-23T03:21:58;100836.09;;;21.85;100.00
7584;BME280;3833;41.764;26.204;2022-07-23T03:24:26;100861.13;;;21.93;100.00
7584;BME280;3833;41.764;26.204;2022-07-23T03:27:14;100864.22;;;21.54;100.00
7584;BME280;3833;41.764;26.204;2022-07-23T03:29:40;100867.22;;;21.04;100.00
7584;BME280;3833;41.764;26.204;2022-07-23T03:32:07;100874.22;;;21.40;100.00
7584;BME280;3833;41.764;26.204;2022-07-23T03:34:35;100872.91;;;21.45;100.00
7584;BME280;3833;41.764;26.204;2022-07-23T03:37:02;100869.50;;;22.21;100.00
7584;BME280;3833;41.764;26.204;2022-07-23T03:39:30;100866.22;;;22.18;100.00
7584;BME280;3833;41.764;26.204;2022-07-23T03:41:57;100879.03;;;22.13;100.00
7584;BME280;3833;41.764;26.204;2022-07-23T03:44:24;100850.34;;;21.62;100.00
7584;BME280;3833;41.764;26.204;2022-07-23T03:46:50;100865.59;;;21.71;100.00
7584;BME280;3833;41.764;26.204;2022-07-23T03:49:17;100867.06;;;22.18;100.00
7584;BME280;3833;41.764;26.204;2022-07-23T03:51:44;100862.88;;;22.69;100.00
7584;BME280;3833;41.764;26.204;2022-07-23T03:54:11;100860.63;;;22.85;100.00
7584;BME280;3833;41.764;26.204;2022-07-23T03:56:39;100871.09;;;23.40;100.00
7584;BME280;3833;41.764;26.204;2022-07-23T03:59:06;100866.75;;;23.69;100.00
7584;BME280;3833;41.764;26.204;2022-07-23T04:01:36;100866.84;;;23.37;100.00
7584;BME280;3833;41.764;26.204;2022-07-23T04:04:03;100860.16;;;23.22;100.00
7584;BME280;3833;41.764;26.204;2022-07-23T04:06:30;100860.00;;;23.24;100.00
7584;BME280;3833;41.764;26.204;2022-07-23T04:08:57;100870.63;;;23.35;100.00
7584;BME280;3833;41.764;26.204;2022-07-23T04:11:24;100872.44;;;23.34;100.00
7584;BME280;3833;41.764;26.204;2022-07-23T04:13:53;100872.72;;;23.31;100.00
7584;BME280;3833;41.764;26.204;2022-07-23T04:16:20;100871.03;;;23.30;100.00
7584;BME280;3833;41.764;26.204;2022-07-23T04:18:46;100879.25;;;23.48;100.00
7584;BME280;3833;41.764;26.204;2022-07-23T04:21:13;100870.22;;;23.39;100.00
7584;BME280;3833;41.764;26.204;2022-07-23T04:23:40;100875.81;;;23.36;100.00
7584;BME280;3833;41.764;26.204;2022-07-23T04:26:07;100881.94;;;23.27;100.00
7584;BME280;3833;41.764;26.204;2022-07-23T04:28:36;100880.75;;;23.20;100.00
7584;BME280;3833;41.764;26.204;2022-07-23T04:31:05;100882.75;;;23.08;100.00
7584;BME280;3833;41.764;26.204;2022-07-23T04:33:31;100885.41;;;22.97;100.00
7584;BME280;3833;41.764;26.204;2022-07-23T04:35:58;100871.19;;;23.18;100.00
7584;BME280;3833;41.764;26.204;2022-07-23T04:38:25;100869.72;;;23.45;100.00
7584;BME280;3833;41.764;26.204;2022-07-23T04:40:52;100876.78;;;23.15;100.00
7584;BME280;3833;41.764;26.204;2022-07-23T04:43:19;100884.28;;;23.41;100.00
7584;BME280;3833;41.764;26.204;2022-07-23T04:45:46;100876.34;;;23.71;100.00
7584;BME280;3833;41.764;26.204;2022-07-23T04:48:14;100890.91;;;23.88;100.00
7584;BME280;3833;41.764;26.204;2022-07-23T04:50:41;100837.97;;;23.42;100.00
7584;BME280;3833;41.764;26.204;2022-07-23T04:53:08;100874.91;;;23.67;100.00
7584;BME280;3833;41.764;26.204;2022-07-23T04:55:35;100867.41;;;23.61;100.00
7584;BME280;3833;41.764;26.204;2022-07-23T04:58:02;100878.69;;;23.44;100.00
7584;BME280;3833;41.764;26.204;2022-07-23T05:00:29;100873.03;;;23.38;100.00
7584;BME280;3833;41.764;26.204;2022-07-23T05:02:55;100875.81;;;23.36;100.00
7584;BME280;3833;41.764;26.204;2022-07-23T05:05:24;100882.13;;;23.04;100.00
7584;BME280;3833;41.764;26.204;2022-07-23T05:07:51;100886.91;;;22.90;100.00
7584;BME280;3833;41.764;26.204;2022-07-23T05:10:17;100879.91;;;22.89;100.00
7584;BME280;3833;41.764;26.204;2022-07-23T05:12:44;100885.75;;;23.14;100.00
7584;BME280;3833;41.764;26.204;2022-07-23T05:15:11;100887.78;;;23.21;100.00
7584;BME280;3833;41.764;26.204;2022-07-23T05:17:38;100884.72;;;23.26;100.00
7584;BME280;3833;41.764;26.204;2022-07-23T05:20:06;100881.28;;;23.55;100.00
7584;BME280;3833;41.764;26.204;2022-07-23T05:22:34;100885.44;;;23.89;100.00
7584;BME280;3833;41.764;26.204;2022-07-23T05:25:01;100883.63;;;24.20;100.00
7584;BME280;3833;41.764;26.204;2022-07-23T05:27:28;100881.41;;;24.24;100.00
7584;BME280;3833;41.764;26.204;2022-07-23T05:29:54;100883.69;;;24.09;100.00
7584;BME280;3833;41.764;26.204;2022-07-23T05:32:21;100890.25;;;23.95;100.00
7584;BME280;3833;41.764;26.204;2022-07-23T05:34:48;100887.94;;;23.81;100.00
7584;BME280;3833;41.764;26.204;2022-07-23T05:37:15;100885.88;;;23.74;100.00
7584;BME280;3833;41.764;26.204;2022-07-23T05:39:43;100876.09;;;23.74;100.00
7584;BME280;3833;41.764;26.204;2022-07-23T05:42:10;100887.31;;;23.98;100.00
7584;BME280;3833;41.764;26.204;2022-07-23T05:44:36;100885.09;;;24.03;100.00
7584;BME280;3833;41.764;26.204;2022-07-23T05:47:03;100886.97;;;24.12;100.00
7584;BME280;3833;41.764;26.204;2022-07-23T05:49:30;100872.09;;;24.19;100.00
7584;BME280;3833;41.764;26.204;2022-07-23T05:51:57;100868.16;;;24.23;100.00
7584;BME280;3833;41.764;26.204;2022-07-23T05:54:24;100884.91;;;24.55;100.00
7584;BME280;3833;41.764;26.204;2022-07-23T05:56:52;100874.78;;;24.58;100.00
7584;BME280;3833;41.764;26.204;2022-07-23T05:59:19;100868.31;;;24.80;100.00
7584;BME280;3833;41.764;26.204;2022-07-23T06:01:46;100880.44;;;25.12;100.00
7584;BME280;3833;41.764;26.204;2022-07-23T06:04:13;100883.28;;;25.30;100.00
7584;BME280;3833;41.764;26.204;2022-07-23T06:06:39;100881.56;;;25.47;100.00
7584;BME280;3833;41.764;26.204;2022-07-23T06:09:06;100884.78;;;25.51;100.00
7584;BME280;3833;41.764;26.204;2022-07-23T06:11:33;100883.66;;;25.63;100.00
7584;BME280;3833;41.764;26.204;2022-07-23T06:14:04;100886.03;;;25.85;100.00
7584;BME280;3833;41.764;26.204;2022-07-23T06:16:31;100885.41;;;26.00;97.95
7584;BME280;3833;41.764;26.204;2022-07-23T06:18:57;100873.00;;;25.99;97.86
7584;BME280;3833;41.764;26.204;2022-07-23T06:21:24;100878.06;;;26.02;95.95
7584;BME280;3833;41.764;26.204;2022-07-23T06:23:51;100868.75;;;26.06;96.08
7584;BME280;3833;41.764;26.204;2022-07-23T06:26:18;100875.91;;;26.15;95.80
7584;BME280;3833;41.764;26.204;2022-07-23T06:28:46;100874.03;;;26.25;96.22
7584;BME280;3833;41.764;26.204;2022-07-23T06:31:15;100874.25;;;26.32;93.06
7584;BME280;3833;41.764;26.204;2022-07-23T06:33:42;100878.72;;;26.50;92.67
7584;BME280;3833;41.764;26.204;2022-07-23T06:36:11;100875.22;;;26.67;91.01
7584;BME280;3833;41.764;26.204;2022-07-23T06:38:40;100846.97;;;26.72;88.14
7584;BME280;3833;41.764;26.204;2022-07-23T06:41:09;100856.09;;;26.97;85.49
7584;BME280;3833;41.764;26.204;2022-07-23T06:43:36;100865.72;;;27.17;83.76
7584;BME280;3833;41.764;26.204;2022-07-23T06:46:05;100870.69;;;27.29;82.45
7584;BME280;3833;41.764;26.204;2022-07-23T06:48:34;100855.50;;;27.38;81.46
7584;BME280;3833;41.764;26.204;2022-07-23T06:51:01;100852.06;;;27.53;82.06
7584;BME280;3833;41.764;26.204;2022-07-23T06:53:29;100864.78;;;27.68;81.38
7584;BME280;3833;41.764;26.204;2022-07-23T06:55:56;100865.22;;;27.81;79.10
7584;BME280;3833;41.764;26.204;2022-07-23T06:58:23;100859.56;;;27.92;78.62
7584;BME280;3833;41.764;26.204;2022-07-23T07:00:50;100853.91;;;28.03;77.25
7584;BME280;3833;41.764;26.204;2022-07-23T07:03:17;100853.69;;;28.22;76.17
7584;BME280;3833;41.764;26.204;2022-07-23T07:05:45;100857.13;;;28.40;74.96
7584;BME280;3833;41.764;26.204;2022-07-23T07:08:17;100853.00;;;28.54;73.23
7584;BME280;3833;41.764;26.204;2022-07-23T07:10:44;100847.78;;;28.68;73.47
7584;BME280;3833;41.764;26.204;2022-07-23T07:13:11;100845.84;;;28.86;72.82
7584;BME280;3833;41.764;26.204;2022-07-23T07:15:39;100843.69;;;29.05;71.55
7584;BME280;3833;41.764;26.204;2022-07-23T07:18:05;100851.59;;;29.23;68.72
7584;BME280;3833;41.764;26.204;2022-07-23T07:20:32;100848.75;;;29.40;68.03
7584;BME280;3833;41.764;26.204;2022-07-23T07:23:00;100850.41;;;29.57;66.20
7584;BME280;3833;41.764;26.204;2022-07-23T07:25:31;100849.53;;;29.72;65.77
7584;BME280;3833;41.764;26.204;2022-07-23T07:27:58;100849.50;;;29.88;65.48
7584;BME280;3833;41.764;26.204;2022-07-23T07:30:25;100842.91;;;29.99;63.89
7584;BME280;3833;41.764;26.204;2022-07-23T07:32:52;100843.03;;;30.21;63.69
7584;BME280;3833;41.764;26.204;2022-07-23T07:35:19;100840.91;;;30.39;62.93
7584;BME280;3833;41.764;26.204;2022-07-23T07:37:45;100842.19;;;30.59;60.32
7584;BME280;3833;41.764;26.204;2022-07-23T07:40:14;100842.44;;;30.72;60.25
7584;BME280;3833;41.764;26.204;2022-07-23T07:42:44;100838.91;;;30.94;57.70
7584;BME280;3833;41.764;26.204;2022-07-23T07:45:11;100838.19;;;31.45;57.12
7584;BME280;3833;41.764;26.204;2022-07-23T07:47:38;100835.44;;;32.39;54.79
7584;BME280;3833;41.764;26.204;2022-07-23T07:50:05;100832.84;;;33.02;51.77
7584;BME280;3833;41.764;26.204;2022-07-23T07:52:33;100832.16;;;33.97;49.22
7584;BME280;3833;41.764;26.204;2022-07-23T07:55:02;100827.66;;;34.50;48.20
7584;BME280;3833;41.764;26.204;2022-07-23T07:57:30;100806.47;;;34.86;45.54
7584;BME280;3833;41.764;26.204;2022-07-23T07:59:57;100815.94;;;35.16;45.02
7584;BME280;3833;41.764;26.204;2022-07-23T08:02:24;100810.69;;;35.60;44.02
7584;BME280;3833;41.764;26.204;2022-07-23T08:04:51;100788.97;;;35.40;43.73
7584;BME280;3833;41.764;26.204;2022-07-23T08:07:18;100784.31;;;35.73;42.19
7584;BME280;3833;41.764;26.204;2022-07-23T08:09:45;100811.06;;;35.96;42.95
7584;BME280;3833;41.764;26.204;2022-07-23T08:12:12;100801.66;;;35.79;42.36
7584;BME280;3833;41.764;26.204;2022-07-23T08:14:40;100800.03;;;35.65;41.69
7584;BME280;3833;41.764;26.204;2022-07-23T08:17:07;100805.66;;;35.70;41.58
7584;BME280;3833;41.764;26.204;2022-07-23T08:19:33;100803.97;;;35.82;41.40
7584;BME280;3833;41.764;26.204;2022-07-23T08:22:00;100796.81;;;36.07;40.47
7584;BME280;3833;41.764;26.204;2022-07-23T08:24:28;100800.38;;;36.57;39.56
7584;BME280;3833;41.764;26.204;2022-07-23T08:26:56;100793.78;;;37.02;38.45
7584;BME280;3833;41.764;26.204;2022-07-23T08:29:23;100797.09;;;37.59;37.16
7584;BME280;3833;41.764;26.204;2022-07-23T08:31:51;100775.97;;;37.73;36.86
7584;BME280;3833;41.764;26.204;2022-07-23T08:34:18;100795.25;;;37.29;36.96
7584;BME280;3833;41.764;26.204;2022-07-23T08:36:47;100786.16;;;37.42;36.93
7584;BME280;3833;41.764;26.204;2022-07-23T08:39:14;100799.81;;;38.02;36.22
7584;BME280;3833;41.764;26.204;2022-07-23T08:41:41;100807.28;;;38.24;36.22
7584;BME280;3833;41.764;26.204;2022-07-23T08:44:09;100781.88;;;38.24;34.14
7584;BME280;3833;41.764;26.204;2022-07-23T08:46:39;100792.53;;;38.61;34.25
7584;BME280;3833;41.764;26.204;2022-07-23T08:49:07;100797.19;;;37.22;35.28
7584;BME280;3833;41.764;26.204;2022-07-23T08:51:34;100805.97;;;37.73;35.15
7584;BME280;3833;41.764;26.204;2022-07-23T08:54:04;100795.91;;;38.45;34.68
7584;BME280;3833;41.764;26.204;2022-07-23T08:56:31;100791.13;;;38.99;33.91
7584;BME280;3833;41.764;26.204;2022-07-23T08:58:58;100797.81;;;39.03;33.39
7584;BME280;3833;41.764;26.204;2022-07-23T09:01:25;100791.22;;;38.34;32.80
7584;BME280;3833;41.764;26.204;2022-07-23T09:03:52;100782.94;;;38.23;32.94
7584;BME280;3833;41.764;26.204;2022-07-23T09:06:20;100786.91;;;38.85;32.26
7584;BME280;3833;41.764;26.204;2022-07-23T09:08:47;100784.47;;;38.95;31.19
7584;BME280;3833;41.764;26.204;2022-07-23T09:11:16;100774.78;;;38.70;31.08
7584;BME280;3833;41.764;26.204;2022-07-23T09:13:46;100764.28;;;38.67;31.61
7584;BME280;3833;41.764;26.204;2022-07-23T09:16:15;100752.91;;;38.41;31.77
7584;BME280;3833;41.764;26.204;2022-07-23T09:18:44;100747.31;;;38.36;32.26
7584;BME280;3833;41.764;26.204;2022-07-23T09:21:17;100770.56;;;38.38;32.78
7584;BME280;3833;41.764;26.204;2022-07-23T09:23:48;100768.94;;;38.49;32.82
7584;BME280;3833;41.764;26.204;2022-07-23T09:26:20;100766.63;;;38.81;32.72
7584;BME280;3833;41.764;26.204;2022-07-23T09:28:51;100752.25;;;38.57;33.45
7584;BME280;3833;41.764;26.204;2022-07-23T09:31:18;100760.16;;;38.47;33.58
7584;BME280;3833;41.764;26.204;2022-07-23T09:33:45;100740.31;;;38.40;33.57
7584;BME280;3833;41.764;26.204;2022-07-23T09:36:12;100734.28;;;38.78;32.18
7584;BME280;3833;41.764;26.204;2022-07-23T09:38:49;100737.91;;;39.13;31.53
7584;BME280;3833;41.764;26.204;2022-07-23T09:41:17;100734.94;;;39.15;32.29
7584;BME280;3833;41.764;26.204;2022-07-23T09:43:44;100721.81;;;38.82;31.47
7584;BME280;3833;41.764;26.204;2022-07-23T09:46:18;100734.94;;;39.26;32.48
7584;BME280;3833;41.764;26.204;2022-07-23T09:48:45;100718.91;;;39.18;31.26
7584;BME280;3833;41.764;26.204;2022-07-23T09:51:12;100721.50;;;39.13;31.16
7584;BME280;3833;41.764;26.204;2022-07-23T09:53:40;100723.16;;;39.37;29.91
7584;BME280;3833;41.764;26.204;2022-07-23T09:56:08;100720.53;;;39.65;29.42
7584;BME280;3833;41.764;26.204;2022-07-23T09:58:39;100713.84;;;38.92;29.38
7584;BME280;3833;41.764;26.204;2022-07-23T10:01:12;100715.31;;;39.29;30.24
7584;BME280;3833;41.764;26.204;2022-07-23T10:03:40;100714.25;;;39.42;30.32
7584;BME280;3833;41.764;26.204;2022-07-23T10:06:08;100653.38;;;39.00;29.99
7584;BME280;3833;41.764;26.204;2022-07-23T10:08:36;100703.88;;;39.09;29.56
7584;BME280;3833;41.764;26.204;2022-07-23T10:11:07;100702.16;;;38.74;30.08
7584;BME280;3833;41.764;26.204;2022-07-23T10:13:34;100704.31;;;38.83;30.28
7584;BME280;3833;41.764;26.204;2022-07-23T10:16:20;100697.81;;;38.96;28.88
7584;BME280;3833;41.764;26.204;2022-07-23T10:18:48;100682.25;;;38.96;28.57
7584;BME280;3833;41.764;26.204;2022-07-23T10:21:20;100677.50;;;38.80;29.37
7584;BME280;3833;41.764;26.204;2022-07-23T10:24:01;100678.66;;;39.07;28.71
7584;BME280;3833;41.764;26.204;2022-07-23T10:26:36;100667.38;;;39.04;29.29
7584;BME280;3833;41.764;26.204;2022-07-23T10:29:16;100673.13;;;39.14;28.64
7584;BME280;3833;41.764;26.204;2022-07-23T10:31:52;100657.38;;;39.09;27.70
7584;BME280;3833;41.764;26.204;2022-07-23T10:34:32;100652.56;;;39.11;28.54
7584;BME280;3833;41.764;26.204;2022-07-23T10:37:12;100674.66;;;38.98;28.44
7584;BME280;3833;41.764;26.204;2022-07-23T10:39:41;100675.94;;;39.07;27.91
7584;BME280;3833;41.764;26.204;2022-07-23T10:42:11;100672.47;;;39.46;27.63
7584;BME280;3833;41.764;26.204;2022-07-23T10:44:39;100644.06;;;39.59;26.79
7584;BME280;3833;41.764;26.204;2022-07-23T10:47:09;100661.91;;;39.89;26.46
7584;BME280;3833;41.764;26.204;2022-07-23T10:50:04;100641.75;;;39.67;27.60
7584;BME280;3833;41.764;26.204;2022-07-23T10:53:15;100643.59;;;40.01;27.58
7584;BME280;3833;41.764;26.204;2022-07-23T10:55:51;100586.00;;;39.96;26.33
7584;BME280;3833;41.764;26.204;2022-07-23T10:58:46;100579.41;;;39.69;25.77
7584;BME280;3833;41.764;26.204;2022-07-23T11:01:33;100617.94;;;40.07;26.73
7584;BME280;3833;41.764;26.204;2022-07-23T11:04:00;100612.69;;;40.50;26.12
7584;BME280;3833;41.764;26.204;2022-07-23T11:09:38;100610.13;;;40.76;24.77
7584;BME280;3833;41.764;26.204;2022-07-23T11:15:23;100595.94;;;41.17;25.50
7584;BME280;3833;41.764;26.204;2022-07-23T11:17:59;100585.97;;;41.27;24.92
7584;BME280;3833;41.764;26.204;2022-07-23T11:20:26;100589.91;;;41.36;25.01
7584;BME280;3833;41.764;26.204;2022-07-23T11:22:55;100580.00;;;41.35;24.82
7584;BME280;3833;41.764;26.204;2022-07-23T11:25:31;100588.38;;;41.45;25.47
7584;BME280;3833;41.764;26.204;2022-07-23T11:28:09;100587.78;;;40.68;25.85
7584;BME280;3833;41.764;26.204;2022-07-23T11:30:42;100571.59;;;41.42;25.15
7584;BME280;3833;41.764;26.204;2022-07-23T11:33:20;100549.09;;;41.18;25.04
7584;BME280;3833;41.764;26.204;2022-07-23T11:35:50;100580.00;;;41.78;25.24
7584;BME280;3833;41.764;26.204;2022-07-23T11:38:27;100573.00;;;41.92;24.26
7584;BME280;3833;41.764;26.204;2022-07-23T11:40:56;100576.78;;;41.38;24.14
7584;BME280;3833;41.764;26.204;2022-07-23T11:43:24;100581.56;;;41.26;24.78
7584;BME280;3833;41.764;26.204;2022-07-23T11:45:53;100571.59;;;41.42;24.69
7584;BME280;3833;41.764;26.204;2022-07-23T11:48:22;100572.88;;;41.34;23.50
7584;BME280;3833;41.764;26.204;2022-07-23T11:50:50;100571.78;;;41.35;24.23
7584;BME280;3833;41.764;26.204;2022-07-23T11:53:24;100569.56;;;40.94;24.13
7584;BME280;3833;41.764;26.204;2022-07-23T11:55:51;100493.69;;;40.62;24.91
7584;BME280;3833;41.764;26.204;2022-07-23T11:58:19;100552.06;;;41.60;23.63
7584;BME280;3833;41.764;26.204;2022-07-23T12:00:47;100565.47;;;42.04;23.42
7584;BME280;3833;41.764;26.204;2022-07-23T12:03:15;100551.84;;;42.19;23.28
7584;BME280;3833;41.764;26.204;2022-07-23T12:05:44;100550.41;;;41.59;24.05
7584;BME280;3833;41.764;26.204;2022-07-23T12:08:11;100563.63;;;41.40;24.76
7584;BME280;3833;41.764;26.204;2022-07-23T12:10:40;100551.84;;;42.19;24.55
7584;BME280;3833;41.764;26.204;2022-07-23T12:13:10;100557.31;;;42.14;24.26
7584;BME280;3833;41.764;26.204;2022-07-23T12:15:39;100553.03;;;42.59;23.71
7584;BME280;3833;41.764;26.204;2022-07-23T12:18:09;100531.81;;;42.50;22.29
7584;BME280;3833;41.764;26.204;2022-07-23T12:20:41;100543.38;;;42.57;22.50
7584;BME280;3833;41.764;26.204;2022-07-23T12:23:10;100535.66;;;42.54;22.89
7584;BME280;3833;41.764;26.204;2022-07-23T12:25:40;100532.34;;;41.89;23.91
7584;BME280;3833;41.764;26.204;2022-07-23T12:28:09;100536.81;;;42.26;24.63
7584;BME280;3833;41.764;26.204;2022-07-23T12:30:39;100541.25;;;41.53;24.94
7584;BME280;3833;41.764;26.204;2022-07-23T12:33:07;100546.91;;;41.20;24.09
7584;BME280;3833;41.764;26.204;2022-07-23T12:35:36;100540.88;;;40.81;24.33
7584;BME280;3833;41.764;26.204;2022-07-23T12:38:08;100528.38;;;40.89;23.56
7584;BME280;3833;41.764;26.204;2022-07-23T12:40:37;100541.19;;;40.68;24.08
7584;BME280;3833;41.764;26.204;2022-07-23T12:43:07;100530.41;;;40.78;23.99
7584;BME280;3833;41.764;26.204;2022-07-23T12:45:43;100534.44;;;41.13;24.09
7584;BME280;3833;41.764;26.204;2022-07-23T12:48:17;100532.34;;;41.41;23.77
7584;BME280;3833;41.764;26.204;2022-07-23T12:50:50;100522.13;;;41.85;23.05
7584;BME280;3833;41.764;26.204;2022-07-23T12:53:20;100524.56;;;41.81;23.27
7584;BME280;3833;41.764;26.204;2022-07-23T12:55:48;100520.66;;;41.08;23.39
7584;BME280;3833;41.764;26.204;2022-07-23T12:58:16;100526.88;;;41.41;23.58
7584;BME280;3833;41.764;26.204;2022-07-23T13:01:03;100515.97;;;41.99;23.08
7584;BME280;3833;41.764;26.204;2022-07-23T13:03:33;100511.75;;;42.18;22.90
7584;BME280;3833;41.764;26.204;2022-07-23T13:06:01;100510.97;;;42.59;21.90
7584;BME280;3833;41.764;26.204;2022-07-23T13:08:31;100521.44;;;42.62;22.22